sensor_id;sensor_type;location;lat;lon;timestamp;P1;durP1;ratioP1;P2;durP2;ratioP2
71087;SDS011;58747;50.674;4.616;2022-09-09T00:03:43;1.85;;;1.17;;
71087;SDS011;58747;50.674;4.616;2022-09-09T00:11:21;3.50;;;1.53;;
71087;SDS011;58747;50.674;4.616;2022-09-09T00:13:52;3.47;;;1.40;;
71087;SDS011;58747;50.674;4.616;2022-09-09T00:16:24;4.35;;;1.33;;
71087;SDS011;58747;50.674;4.616;2022-09-09T00:21:21;4.32;;;1.70;;
71087;SDS011;58747;50.674;4.616;2022-09-09T00:24:00;6.63;;;1.53;;
71087;SDS011;58747;50.674;4.616;2022-09-09T00:26:36;3.65;;;1.10;;
71087;SDS011;58747;50.674;4.616;2022-09-09T00:31:32;6.50;;;1.20;;
71087;SDS011;58747;50.674;4.616;2022-09-09T00:33:58;3.10;;;1.05;;
71087;SDS011;58747;50.674;4.616;2022-09-09T00:36:28;2.35;;;1.35;;
71087;SDS011;58747;50.674;4.616;2022-09-09T00:38:59;1.97;;;1.30;;
71087;SDS011;58747;50.674;4.616;2022-09-09T00:41:29;4.40;;;1.60;;
71087;SDS011;58747;50.674;4.616;2022-09-09T00:44:01;5.00;;;1.50;;
71087;SDS011;58747;50.674;4.616;2022-09-09T00:49:51;4.53;;;1.30;;
71087;SDS011;58747;50.674;4.616;2022-09-09T00:55:16;4.18;;;1.50;;
71087;SDS011;58747;50.674;4.616;2022-09-09T00:57:52;4.45;;;1.70;;
71087;SDS011;58747;50.674;4.616;2022-09-09T01:00:21;2.65;;;1.60;;
71087;SDS011;58747;50.674;4.616;2022-09-09T01:08:50;4.43;;;1.42;;
71087;SDS011;58747;50.674;4.616;2022-09-09T01:11:32;5.00;;;1.75;;
71087;SDS011;58747;50.674;4.616;2022-09-09T01:22:44;2.88;;;1.40;;
71087;SDS011;58747;50.674;4.616;2022-09-09T01:28:09;5.28;;;1.38;;
71087;SDS011;58747;50.674;4.616;2022-09-09T01:30:39;3.50;;;1.58;;
71087;SDS011;58747;50.674;4.616;2022-09-09T01:33:07;6.07;;;2.20;;
71087;SDS011;58747;50.674;4.616;2022-09-09T01:35:52;2.75;;;1.35;;
71087;SDS011;58747;50.674;4.616;2022-09-09T01:38:21;2.55;;;1.40;;
71087;SDS011;58747;50.674;4.616;2022-09-09T01:40:48;2.75;;;1.50;;
71087;SDS011;58747;50.674;4.616;2022-09-09T01:43:17;5.47;;;1.85;;
71087;SDS011;58747;50.674;4.616;2022-09-09T01:45:43;4.37;;;1.50;;
71087;SDS011;58747;50.674;4.616;2022-09-09T01:48:11;4.32;;;1.10;;
71087;SDS011;58747;50.674;4.616;2022-09-09T01:50:36;4.07;;;1.23;;
71087;SDS011;58747;50.674;4.616;2022-09-09T01:53:02;6.80;;;1.93;;
71087;SDS011;58747;50.674;4.616;2022-09-09T02:00:56;5.57;;;1.63;;
71087;SDS011;58747;50.674;4.616;2022-09-09T02:03:30;5.32;;;2.00;;
71087;SDS011;58747;50.674;4.616;2022-09-09T02:08:29;5.38;;;1.42;;
71087;SDS011;58747;50.674;4.616;2022-09-09T02:13:39;5.15;;;1.40;;
71087;SDS011;58747;50.674;4.616;2022-09-09T02:18:57;3.50;;;1.53;;
71087;SDS011;58747;50.674;4.616;2022-09-09T02:21:34;5.57;;;2.50;;
71087;SDS011;58747;50.674;4.616;2022-09-09T02:24:02;5.78;;;2.00;;
71087;SDS011;58747;50.674;4.616;2022-09-09T02:26:30;6.03;;;1.80;;
71087;SDS011;58747;50.674;4.616;2022-09-09T02:31:41;3.80;;;1.67;;
71087;SDS011;58747;50.674;4.616;2022-09-09T02:34:10;4.20;;;1.35;;
71087;SDS011;58747;50.674;4.616;2022-09-09T02:36:38;3.58;;;1.48;;
71087;SDS011;58747;50.674;4.616;2022-09-09T02:39:07;5.05;;;1.92;;
71087;SDS011;58747;50.674;4.616;2022-09-09T02:41:35;2.65;;;1.70;;
71087;SDS011;58747;50.674;4.616;2022-09-09T02:44:05;4.67;;;1.50;;
71087;SDS011;58747;50.674;4.616;2022-09-09T02:46:36;7.47;;;2.03;;
71087;SDS011;58747;50.674;4.616;2022-09-09T02:52:07;4.50;;;1.55;;
71087;SDS011;58747;50.674;4.616;2022-09-09T02:54:37;6.80;;;1.48;;
71087;SDS011;58747;50.674;4.616;2022-09-09T02:57:06;7.53;;;1.80;;
71087;SDS011;58747;50.674;4.616;2022-09-09T02:59:35;4.18;;;1.73;;
71087;SDS011;58747;50.674;4.616;2022-09-09T03:02:01;3.50;;;2.63;;
71087;SDS011;58747;50.674;4.616;2022-09-09T03:04:26;6.80;;;2.43;;
71087;SDS011;58747;50.674;4.616;2022-09-09T03:06:52;4.60;;;1.70;;
71087;SDS011;58747;50.674;4.616;2022-09-09T03:09:17;5.63;;;2.00;;
71087;SDS011;58747;50.674;4.616;2022-09-09T03:11:42;8.93;;;1.93;;
71087;SDS011;58747;50.674;4.616;2022-09-09T03:14:08;3.78;;;1.73;;
71087;SDS011;58747;50.674;4.616;2022-09-09T03:16:33;4.47;;;1.63;;
71087;SDS011;58747;50.674;4.616;2022-09-09T03:18:59;6.07;;;1.43;;
71087;SDS011;58747;50.674;4.616;2022-09-09T03:21:25;6.67;;;2.17;;
71087;SDS011;58747;50.674;4.616;2022-09-09T03:23:50;5.20;;;1.70;;
71087;SDS011;58747;50.674;4.616;2022-09-09T03:26:16;3.50;;;2.27;;
71087;SDS011;58747;50.674;4.616;2022-09-09T03:28:42;4.50;;;1.83;;
71087;SDS011;58747;50.674;4.616;2022-09-09T03:31:08;6.47;;;2.28;;
71087;SDS011;58747;50.674;4.616;2022-09-09T03:33:35;6.20;;;2.10;;
71087;SDS011;58747;50.674;4.616;2022-09-09T03:36:04;4.97;;;1.42;;
71087;SDS011;58747;50.674;4.616;2022-09-09T03:38:30;5.07;;;1.30;;
71087;SDS011;58747;50.674;4.616;2022-09-09T03:40:56;5.93;;;1.88;;
71087;SDS011;58747;50.674;4.616;2022-09-09T03:43:23;5.18;;;2.03;;
71087;SDS011;58747;50.674;4.616;2022-09-09T03:45:50;3.43;;;1.70;;
71087;SDS011;58747;50.674;4.616;2022-09-09T03:48:16;5.15;;;2.33;;
71087;SDS011;58747;50.674;4.616;2022-09-09T03:53:15;6.43;;;2.03;;
71087;SDS011;58747;50.674;4.616;2022-09-09T03:55:45;8.35;;;2.17;;
71087;SDS011;58747;50.674;4.616;2022-09-09T03:58:12;4.17;;;1.27;;
71087;SDS011;58747;50.674;4.616;2022-09-09T04:00:38;7.13;;;2.30;;
71087;SDS011;58747;50.674;4.616;2022-09-09T04:03:08;3.03;;;1.73;;
71087;SDS011;58747;50.674;4.616;2022-09-09T04:05:34;3.83;;;2.22;;
71087;SDS011;58747;50.674;4.616;2022-09-09T04:08:00;10.17;;;2.57;;
71087;SDS011;58747;50.674;4.616;2022-09-09T04:10:25;4.83;;;2.13;;
71087;SDS011;58747;50.674;4.616;2022-09-09T04:12:51;5.68;;;1.90;;
71087;SDS011;58747;50.674;4.616;2022-09-09T04:15:17;6.50;;;4.00;;
71087;SDS011;58747;50.674;4.616;2022-09-09T04:17:43;4.47;;;1.83;;
71087;SDS011;58747;50.674;4.616;2022-09-09T04:20:09;5.67;;;1.90;;
71087;SDS011;58747;50.674;4.616;2022-09-09T04:22:37;12.18;;;2.90;;
71087;SDS011;58747;50.674;4.616;2022-09-09T04:25:04;8.17;;;1.93;;
71087;SDS011;58747;50.674;4.616;2022-09-09T04:27:30;7.32;;;2.20;;
71087;SDS011;58747;50.674;4.616;2022-09-09T04:29:56;6.75;;;2.50;;
71087;SDS011;58747;50.674;4.616;2022-09-09T04:32:22;5.73;;;1.87;;
71087;SDS011;58747;50.674;4.616;2022-09-09T04:34:48;9.53;;;3.53;;
71087;SDS011;58747;50.674;4.616;2022-09-09T04:37:13;6.57;;;2.27;;
71087;SDS011;58747;50.674;4.616;2022-09-09T04:39:39;11.40;;;2.25;;
71087;SDS011;58747;50.674;4.616;2022-09-09T04:42:04;6.03;;;2.20;;
71087;SDS011;58747;50.674;4.616;2022-09-09T04:44:30;8.23;;;2.57;;
71087;SDS011;58747;50.674;4.616;2022-09-09T04:46:55;6.23;;;2.17;;
71087;SDS011;58747;50.674;4.616;2022-09-09T04:49:21;4.82;;;2.40;;
71087;SDS011;58747;50.674;4.616;2022-09-09T04:51:48;5.33;;;2.17;;
71087;SDS011;58747;50.674;4.616;2022-09-09T04:54:14;7.97;;;2.60;;
71087;SDS011;58747;50.674;4.616;2022-09-09T04:56:39;5.70;;;2.70;;
71087;SDS011;58747;50.674;4.616;2022-09-09T04:59:06;10.70;;;2.83;;
71087;SDS011;58747;50.674;4.616;2022-09-09T05:01:31;9.33;;;2.23;;
71087;SDS011;58747;50.674;4.616;2022-09-09T05:03:57;8.63;;;2.13;;
71087;SDS011;58747;50.674;4.616;2022-09-09T05:06:22;5.00;;;2.43;;
71087;SDS011;58747;50.674;4.616;2022-09-09T05:08:48;5.03;;;2.33;;
71087;SDS011;58747;50.674;4.616;2022-09-09T05:11:18;8.60;;;2.38;;
71087;SDS011;58747;50.674;4.616;2022-09-09T05:13:45;6.07;;;2.40;;
71087;SDS011;58747;50.674;4.616;2022-09-09T05:16:11;4.43;;;2.40;;
71087;SDS011;58747;50.674;4.616;2022-09-09T05:18:38;6.13;;;1.95;;
71087;SDS011;58747;50.674;4.616;2022-09-09T05:21:04;7.83;;;2.30;;
71087;SDS011;58747;50.674;4.616;2022-09-09T05:23:31;8.50;;;3.03;;
71087;SDS011;58747;50.674;4.616;2022-09-09T05:25:58;4.68;;;2.08;;
71087;SDS011;58747;50.674;4.616;2022-09-09T05:28:24;5.18;;;2.15;;
71087;SDS011;58747;50.674;4.616;2022-09-09T05:30:57;4.60;;;1.85;;
71087;SDS011;58747;50.674;4.616;2022-09-09T05:33:29;6.37;;;1.90;;
71087;SDS011;58747;50.674;4.616;2022-09-09T05:35:55;3.72;;;2.25;;
71087;SDS011;58747;50.674;4.616;2022-09-09T05:38:21;5.07;;;2.75;;
71087;SDS011;58747;50.674;4.616;2022-09-09T05:40:49;8.30;;;2.40;;
71087;SDS011;58747;50.674;4.616;2022-09-09T05:43:15;11.60;;;2.67;;
71087;SDS011;58747;50.674;4.616;2022-09-09T05:45:40;4.20;;;2.40;;
71087;SDS011;58747;50.674;4.616;2022-09-09T05:48:05;9.07;;;2.00;;
71087;SDS011;58747;50.674;4.616;2022-09-09T05:50:32;7.85;;;1.70;;
71087;SDS011;58747;50.674;4.616;2022-09-09T05:52:57;6.27;;;1.77;;
71087;SDS011;58747;50.674;4.616;2022-09-09T05:55:22;10.67;;;3.20;;
71087;SDS011;58747;50.674;4.616;2022-09-09T05:57:48;7.90;;;2.40;;
71087;SDS011;58747;50.674;4.616;2022-09-09T06:00:14;7.30;;;2.13;;
71087;SDS011;58747;50.674;4.616;2022-09-09T06:02:40;5.85;;;2.22;;
71087;SDS011;58747;50.674;4.616;2022-09-09T06:05:06;8.38;;;3.60;;
71087;SDS011;58747;50.674;4.616;2022-09-09T06:07:33;5.85;;;2.40;;
71087;SDS011;58747;50.674;4.616;2022-09-09T06:09:58;3.53;;;1.90;;
71087;SDS011;58747;50.674;4.616;2022-09-09T06:12:25;8.50;;;1.87;;
71087;SDS011;58747;50.674;4.616;2022-09-09T06:14:51;8.38;;;2.00;;
71087;SDS011;58747;50.674;4.616;2022-09-09T06:17:16;5.60;;;2.27;;
71087;SDS011;58747;50.674;4.616;2022-09-09T06:19:42;8.00;;;2.07;;
71087;SDS011;58747;50.674;4.616;2022-09-09T06:22:07;7.10;;;1.95;;
71087;SDS011;58747;50.674;4.616;2022-09-09T06:24:36;6.30;;;3.00;;
71087;SDS011;58747;50.674;4.616;2022-09-09T06:27:02;5.38;;;1.63;;
71087;SDS011;58747;50.674;4.616;2022-09-09T06:29:28;5.77;;;2.40;;
71087;SDS011;58747;50.674;4.616;2022-09-09T06:31:53;8.27;;;2.40;;
71087;SDS011;58747;50.674;4.616;2022-09-09T06:34:18;8.10;;;2.15;;
71087;SDS011;58747;50.674;4.616;2022-09-09T06:36:44;4.67;;;1.73;;
71087;SDS011;58747;50.674;4.616;2022-09-09T06:39:10;4.65;;;2.03;;
71087;SDS011;58747;50.674;4.616;2022-09-09T06:41:36;9.03;;;2.00;;
71087;SDS011;58747;50.674;4.616;2022-09-09T06:44:03;8.00;;;2.85;;
71087;SDS011;58747;50.674;4.616;2022-09-09T06:46:30;7.37;;;2.47;;
71087;SDS011;58747;50.674;4.616;2022-09-09T06:48:57;5.90;;;2.10;;
71087;SDS011;58747;50.674;4.616;2022-09-09T06:51:28;12.23;;;2.50;;
71087;SDS011;58747;50.674;4.616;2022-09-09T06:53:55;7.40;;;2.45;;
71087;SDS011;58747;50.674;4.616;2022-09-09T06:56:26;5.72;;;1.88;;
71087;SDS011;58747;50.674;4.616;2022-09-09T06:58:55;4.10;;;1.77;;
71087;SDS011;58747;50.674;4.616;2022-09-09T07:01:24;13.27;;;2.50;;
71087;SDS011;58747;50.674;4.616;2022-09-09T07:03:52;6.57;;;1.83;;
71087;SDS011;58747;50.674;4.616;2022-09-09T07:06:23;2.85;;;2.28;;
71087;SDS011;58747;50.674;4.616;2022-09-09T07:08:54;4.35;;;2.10;;
71087;SDS011;58747;50.674;4.616;2022-09-09T07:11:21;6.55;;;2.13;;
71087;SDS011;58747;50.674;4.616;2022-09-09T07:13:50;5.20;;;1.98;;
71087;SDS011;58747;50.674;4.616;2022-09-09T07:16:16;6.30;;;2.70;;
71087;SDS011;58747;50.674;4.616;2022-09-09T07:18:43;6.50;;;1.92;;
71087;SDS011;58747;50.674;4.616;2022-09-09T07:21:09;7.50;;;1.60;;
71087;SDS011;58747;50.674;4.616;2022-09-09T07:23:37;5.30;;;2.10;;
71087;SDS011;58747;50.674;4.616;2022-09-09T07:26:06;6.32;;;2.42;;
71087;SDS011;58747;50.674;4.616;2022-09-09T07:28:33;5.47;;;2.13;;
71087;SDS011;58747;50.674;4.616;2022-09-09T07:30:59;4.73;;;2.13;;
71087;SDS011;58747;50.674;4.616;2022-09-09T07:33:28;6.80;;;2.33;;
71087;SDS011;58747;50.674;4.616;2022-09-09T07:36:40;3.38;;;2.38;;
71087;SDS011;58747;50.674;4.616;2022-09-09T07:38:49;9.13;;;1.70;;
71087;SDS011;58747;50.674;4.616;2022-09-09T07:41:18;7.55;;;2.38;;
71087;SDS011;58747;50.674;4.616;2022-09-09T07:43:51;5.60;;;2.10;;
71087;SDS011;58747;50.674;4.616;2022-09-09T07:46:19;4.18;;;2.13;;
71087;SDS011;58747;50.674;4.616;2022-09-09T07:48:45;6.13;;;1.92;;
71087;SDS011;58747;50.674;4.616;2022-09-09T07:51:14;10.50;;;2.20;;
71087;SDS011;58747;50.674;4.616;2022-09-09T07:53:45;6.47;;;2.72;;
71087;SDS011;58747;50.674;4.616;2022-09-09T07:56:12;6.50;;;2.05;;
71087;SDS011;58747;50.674;4.616;2022-09-09T07:58:39;5.95;;;2.33;;
71087;SDS011;58747;50.674;4.616;2022-09-09T08:01:09;7.85;;;2.08;;
71087;SDS011;58747;50.674;4.616;2022-09-09T08:03:37;7.90;;;2.23;;
71087;SDS011;58747;50.674;4.616;2022-09-09T08:06:03;4.47;;;2.13;;
71087;SDS011;58747;50.674;4.616;2022-09-09T08:08:31;6.38;;;2.10;;
71087;SDS011;58747;50.674;4.616;2022-09-09T08:11:05;8.23;;;2.63;;
71087;SDS011;58747;50.674;4.616;2022-09-09T08:13:33;9.07;;;2.65;;
71087;SDS011;58747;50.674;4.616;2022-09-09T08:16:19;6.20;;;2.00;;
71087;SDS011;58747;50.674;4.616;2022-09-09T08:18:47;5.60;;;2.38;;
71087;SDS011;58747;50.674;4.616;2022-09-09T08:21:17;7.55;;;2.10;;
71087;SDS011;58747;50.674;4.616;2022-09-09T08:23:45;8.90;;;2.50;;
71087;SDS011;58747;50.674;4.616;2022-09-09T08:26:16;6.88;;;1.85;;
71087;SDS011;58747;50.674;4.616;2022-09-09T08:28:49;4.40;;;2.17;;
71087;SDS011;58747;50.674;4.616;2022-09-09T08:31:17;6.10;;;2.30;;
71087;SDS011;58747;50.674;4.616;2022-09-09T08:33:43;5.88;;;2.83;;
71087;SDS011;58747;50.674;4.616;2022-09-09T08:36:11;5.85;;;1.85;;
71087;SDS011;58747;50.674;4.616;2022-09-09T08:38:40;5.50;;;2.30;;
71087;SDS011;58747;50.674;4.616;2022-09-09T08:43:46;7.20;;;2.42;;
71087;SDS011;58747;50.674;4.616;2022-09-09T08:46:24;7.65;;;2.83;;
71087;SDS011;58747;50.674;4.616;2022-09-09T08:48:58;7.53;;;2.20;;
71087;SDS011;58747;50.674;4.616;2022-09-09T08:51:41;6.18;;;2.20;;
71087;SDS011;58747;50.674;4.616;2022-09-09T08:54:07;7.60;;;3.03;;
71087;SDS011;58747;50.674;4.616;2022-09-09T08:56:35;5.65;;;2.22;;
71087;SDS011;58747;50.674;4.616;2022-09-09T08:59:01;4.38;;;2.42;;
71087;SDS011;58747;50.674;4.616;2022-09-09T09:04:05;5.53;;;2.80;;
71087;SDS011;58747;50.674;4.616;2022-09-09T09:06:49;10.13;;;2.90;;
71087;SDS011;58747;50.674;4.616;2022-09-09T09:09:27;6.22;;;2.92;;
71087;SDS011;58747;50.674;4.616;2022-09-09T09:11:56;8.48;;;2.58;;
71087;SDS011;58747;50.674;4.616;2022-09-09T09:14:31;4.80;;;2.57;;
71087;SDS011;58747;50.674;4.616;2022-09-09T09:17:01;7.80;;;2.70;;
71087;SDS011;58747;50.674;4.616;2022-09-09T09:19:32;8.55;;;2.83;;
71087;SDS011;58747;50.674;4.616;2022-09-09T09:22:14;8.75;;;3.95;;
71087;SDS011;58747;50.674;4.616;2022-09-09T09:27:33;5.00;;;2.80;;
71087;SDS011;58747;50.674;4.616;2022-09-09T09:30:05;7.50;;;2.78;;
71087;SDS011;58747;50.674;4.616;2022-09-09T09:32:38;5.68;;;3.35;;
71087;SDS011;58747;50.674;4.616;2022-09-09T09:35:12;5.97;;;2.50;;
71087;SDS011;58747;50.674;4.616;2022-09-09T09:37:39;7.15;;;2.83;;
71087;SDS011;58747;50.674;4.616;2022-09-09T09:40:23;6.80;;;3.00;;
71087;SDS011;58747;50.674;4.616;2022-09-09T09:42:53;10.10;;;2.85;;
71087;SDS011;58747;50.674;4.616;2022-09-09T09:45:33;6.07;;;2.80;;
71087;SDS011;58747;50.674;4.616;2022-09-09T09:48:12;8.05;;;3.22;;
71087;SDS011;58747;50.674;4.616;2022-09-09T09:53:30;8.63;;;3.47;;
71087;SDS011;58747;50.674;4.616;2022-09-09T09:56:02;6.88;;;3.00;;
71087;SDS011;58747;50.674;4.616;2022-09-09T09:58:30;5.13;;;3.15;;
71087;SDS011;58747;50.674;4.616;2022-09-09T10:00:58;7.95;;;3.00;;
71087;SDS011;58747;50.674;4.616;2022-09-09T10:03:29;11.02;;;4.13;;
71087;SDS011;58747;50.674;4.616;2022-09-09T10:05:55;6.90;;;2.70;;
71087;SDS011;58747;50.674;4.616;2022-09-09T10:08:22;9.35;;;3.10;;
71087;SDS011;58747;50.674;4.616;2022-09-09T10:19:05;7.90;;;3.10;;
71087;SDS011;58747;50.674;4.616;2022-09-09T10:35:02;5.85;;;2.47;;
71087;SDS011;58747;50.674;4.616;2022-09-09T10:37:46;7.10;;;2.90;;
71087;SDS011;58747;50.674;4.616;2022-09-09T10:48:40;10.05;;;3.78;;
71087;SDS011;58747;50.674;4.616;2022-09-09T10:51:19;10.18;;;4.10;;
71087;SDS011;58747;50.674;4.616;2022-09-09T10:56:42;11.30;;;3.80;;
71087;SDS011;58747;50.674;4.616;2022-09-09T10:59:17;8.57;;;3.70;;
71087;SDS011;58747;50.674;4.616;2022-09-09T11:01:48;8.70;;;3.47;;
71087;SDS011;58747;50.674;4.616;2022-09-09T11:07:26;4.93;;;4.13;;
71087;SDS011;58747;50.674;4.616;2022-09-09T11:10:02;10.53;;;3.73;;
71087;SDS011;58747;50.674;4.616;2022-09-09T11:12:32;7.43;;;3.67;;
71087;SDS011;58747;50.674;4.616;2022-09-09T11:17:31;7.80;;;3.50;;
71087;SDS011;58747;50.674;4.616;2022-09-09T11:20:01;6.63;;;3.20;;
71087;SDS011;58747;50.674;4.616;2022-09-09T11:30:21;9.10;;;2.83;;
71087;SDS011;58747;50.674;4.616;2022-09-09T11:35:54;7.20;;;2.55;;
71087;SDS011;58747;50.674;4.616;2022-09-09T11:38:28;7.45;;;2.50;;
71087;SDS011;58747;50.674;4.616;2022-09-09T11:41:06;4.90;;;3.25;;
71087;SDS011;58747;50.674;4.616;2022-09-09T11:43:41;9.03;;;3.13;;
71087;SDS011;58747;50.674;4.616;2022-09-09T11:46:13;7.90;;;2.72;;
71087;SDS011;58747;50.674;4.616;2022-09-09T11:48:45;5.75;;;3.35;;
71087;SDS011;58747;50.674;4.616;2022-09-09T11:53:48;5.03;;;2.70;;
71087;SDS011;58747;50.674;4.616;2022-09-09T11:56:34;6.75;;;3.40;;
71087;SDS011;58747;50.674;4.616;2022-09-09T11:59:25;8.40;;;3.00;;
71087;SDS011;58747;50.674;4.616;2022-09-09T12:10:35;5.68;;;3.17;;
71087;SDS011;58747;50.674;4.616;2022-09-09T12:13:22;5.78;;;2.33;;
71087;SDS011;58747;50.674;4.616;2022-09-09T12:15:50;6.37;;;2.37;;
71087;SDS011;58747;50.674;4.616;2022-09-09T12:18:38;5.47;;;3.20;;
71087;SDS011;58747;50.674;4.616;2022-09-09T12:21:15;5.93;;;2.30;;
71087;SDS011;58747;50.674;4.616;2022-09-09T12:23:59;4.13;;;2.50;;
71087;SDS011;58747;50.674;4.616;2022-09-09T12:29:23;3.73;;;2.63;;
71087;SDS011;58747;50.674;4.616;2022-09-09T12:31:59;6.93;;;2.30;;
71087;SDS011;58747;50.674;4.616;2022-09-09T12:37:20;7.65;;;2.20;;
71087;SDS011;58747;50.674;4.616;2022-09-09T12:39:58;7.53;;;2.20;;
71087;SDS011;58747;50.674;4.616;2022-09-09T12:42:27;6.00;;;2.50;;
71087;SDS011;58747;50.674;4.616;2022-09-09T12:47:18;4.40;;;2.43;;
71087;SDS011;58747;50.674;4.616;2022-09-09T12:49:46;3.40;;;2.00;;
71087;SDS011;58747;50.674;4.616;2022-09-09T12:52:16;3.15;;;2.20;;
71087;SDS011;58747;50.674;4.616;2022-09-09T12:54:55;3.30;;;2.13;;
71087;SDS011;58747;50.674;4.616;2022-09-09T12:57:23;5.40;;;1.98;;
71087;SDS011;58747;50.674;4.616;2022-09-09T12:59:50;2.22;;;2.03;;
71087;SDS011;58747;50.674;4.616;2022-09-09T13:02:20;5.82;;;1.80;;
71087;SDS011;58747;50.674;4.616;2022-09-09T13:04:47;4.03;;;2.40;;
71087;SDS011;58747;50.674;4.616;2022-09-09T13:07:15;3.90;;;2.03;;
71087;SDS011;58747;50.674;4.616;2022-09-09T13:09:41;4.35;;;2.00;;
71087;SDS011;58747;50.674;4.616;2022-09-09T13:12:18;2.22;;;1.92;;
71087;SDS011;58747;50.674;4.616;2022-09-09T13:14:47;4.18;;;2.10;;
71087;SDS011;58747;50.674;4.616;2022-09-09T13:17:26;4.75;;;2.42;;
71087;SDS011;58747;50.674;4.616;2022-09-09T13:19:53;5.73;;;1.97;;
71087;SDS011;58747;50.674;4.616;2022-09-09T13:22:29;3.03;;;1.90;;
71087;SDS011;58747;50.674;4.616;2022-09-09T13:25:02;2.85;;;1.98;;
71087;SDS011;58747;50.674;4.616;2022-09-09T13:32:59;5.80;;;2.30;;
71087;SDS011;58747;50.674;4.616;2022-09-09T13:35:27;2.25;;;1.60;;
71087;SDS011;58747;50.674;4.616;2022-09-09T13:37:52;2.83;;;1.30;;
71087;SDS011;58747;50.674;4.616;2022-09-09T13:40:19;4.97;;;2.10;;
71087;SDS011;58747;50.674;4.616;2022-09-09T13:42:46;3.47;;;1.55;;
71087;SDS011;58747;50.674;4.616;2022-09-09T13:45:19;5.95;;;2.30;;
71087;SDS011;58747;50.674;4.616;2022-09-09T13:47:47;3.67;;;1.33;;
71087;SDS011;58747;50.674;4.616;2022-09-09T13:52:53;1.63;;;1.53;;
71087;SDS011;58747;50.674;4.616;2022-09-09T13:55:20;3.63;;;1.92;;
71087;SDS011;58747;50.674;4.616;2022-09-09T13:57:54;3.40;;;2.25;;
71087;SDS011;58747;50.674;4.616;2022-09-09T14:00:21;3.75;;;2.03;;
71087;SDS011;58747;50.674;4.616;2022-09-09T14:02:49;4.72;;;1.90;;
71087;SDS011;58747;50.674;4.616;2022-09-09T14:05:14;1.87;;;1.73;;
71087;SDS011;58747;50.674;4.616;2022-09-09T14:07:41;2.65;;;1.90;;
71087;SDS011;58747;50.674;4.616;2022-09-09T14:10:07;3.85;;;2.17;;
71087;SDS011;58747;50.674;4.616;2022-09-09T14:12:33;4.30;;;1.90;;
71087;SDS011;58747;50.674;4.616;2022-09-09T14:14:58;3.57;;;2.27;;
71087;SDS011;58747;50.674;4.616;2022-09-09T14:17:24;2.80;;;2.03;;
71087;SDS011;58747;50.674;4.616;2022-09-09T14:19:54;3.63;;;1.80;;
71087;SDS011;58747;50.674;4.616;2022-09-09T14:22:19;2.07;;;1.43;;
71087;SDS011;58747;50.674;4.616;2022-09-09T14:24:45;3.10;;;2.47;;
71087;SDS011;58747;50.674;4.616;2022-09-09T14:27:11;2.60;;;1.75;;
71087;SDS011;58747;50.674;4.616;2022-09-09T14:29:36;3.03;;;1.90;;
71087;SDS011;58747;50.674;4.616;2022-09-09T14:32:01;1.83;;;1.73;;
71087;SDS011;58747;50.674;4.616;2022-09-09T14:34:27;3.83;;;2.10;;
71087;SDS011;58747;50.674;4.616;2022-09-09T14:36:52;2.90;;;1.77;;
71087;SDS011;58747;50.674;4.616;2022-09-09T14:39:18;2.90;;;1.77;;
71087;SDS011;58747;50.674;4.616;2022-09-09T14:41:43;3.40;;;2.07;;
71087;SDS011;58747;50.674;4.616;2022-09-09T14:44:08;2.33;;;1.77;;
71087;SDS011;58747;50.674;4.616;2022-09-09T14:46:34;3.30;;;2.40;;
71087;SDS011;58747;50.674;4.616;2022-09-09T14:48:59;3.38;;;1.20;;
71087;SDS011;58747;50.674;4.616;2022-09-09T14:51:25;2.43;;;2.10;;
71087;SDS011;58747;50.674;4.616;2022-09-09T14:53:53;4.60;;;1.77;;
71087;SDS011;58747;50.674;4.616;2022-09-09T14:56:23;2.15;;;1.95;;
71087;SDS011;58747;50.674;4.616;2022-09-09T14:58:53;4.70;;;2.33;;
71087;SDS011;58747;50.674;4.616;2022-09-09T15:01:20;5.72;;;1.98;;
71087;SDS011;58747;50.674;4.616;2022-09-09T15:03:52;2.23;;;1.47;;
71087;SDS011;58747;50.674;4.616;2022-09-09T15:06:20;2.95;;;1.67;;
71087;SDS011;58747;50.674;4.616;2022-09-09T15:08:46;3.38;;;1.73;;
71087;SDS011;58747;50.674;4.616;2022-09-09T15:11:13;4.90;;;1.90;;
71087;SDS011;58747;50.674;4.616;2022-09-09T15:13:39;2.85;;;1.80;;
71087;SDS011;58747;50.674;4.616;2022-09-09T15:16:07;3.50;;;1.93;;
71087;SDS011;58747;50.674;4.616;2022-09-09T15:18:34;3.15;;;2.03;;
71087;SDS011;58747;50.674;4.616;2022-09-09T15:21:01;5.40;;;2.35;;
71087;SDS011;58747;50.674;4.616;2022-09-09T15:23:33;4.88;;;1.95;;
71087;SDS011;58747;50.674;4.616;2022-09-09T15:25:59;3.50;;;2.13;;
71087;SDS011;58747;50.674;4.616;2022-09-09T15:28:24;2.33;;;2.00;;
71087;SDS011;58747;50.674;4.616;2022-09-09T15:30:50;3.83;;;2.23;;
71087;SDS011;58747;50.674;4.616;2022-09-09T15:33:17;3.58;;;1.83;;
71087;SDS011;58747;50.674;4.616;2022-09-09T15:35:43;2.50;;;1.80;;
71087;SDS011;58747;50.674;4.616;2022-09-09T15:38:08;1.73;;;1.63;;
71087;SDS011;58747;50.674;4.616;2022-09-09T15:40:33;2.93;;;1.93;;
71087;SDS011;58747;50.674;4.616;2022-09-09T15:42:59;3.70;;;2.00;;
71087;SDS011;58747;50.674;4.616;2022-09-09T15:45:24;4.77;;;1.50;;
71087;SDS011;58747;50.674;4.616;2022-09-09T15:47:49;3.30;;;1.67;;
71087;SDS011;58747;50.674;4.616;2022-09-09T15:50:15;3.40;;;1.33;;
71087;SDS011;58747;50.674;4.616;2022-09-09T15:52:40;2.13;;;1.73;;
71087;SDS011;58747;50.674;4.616;2022-09-09T15:55:06;3.13;;;1.90;;
71087;SDS011;58747;50.674;4.616;2022-09-09T15:57:33;1.77;;;1.67;;
71087;SDS011;58747;50.674;4.616;2022-09-09T15:59:59;4.78;;;2.05;;
71087;SDS011;58747;50.674;4.616;2022-09-09T16:02:25;7.33;;;2.50;;
71087;SDS011;58747;50.674;4.616;2022-09-09T16:04:50;2.50;;;1.47;;
71087;SDS011;58747;50.674;4.616;2022-09-09T16:07:15;2.03;;;1.70;;
71087;SDS011;58747;50.674;4.616;2022-09-09T16:09:41;2.90;;;1.77;;
71087;SDS011;58747;50.674;4.616;2022-09-09T16:12:08;5.47;;;2.30;;
71087;SDS011;58747;50.674;4.616;2022-09-09T16:14:36;3.87;;;2.03;;
71087;SDS011;58747;50.674;4.616;2022-09-09T16:17:03;3.67;;;1.60;;
71087;SDS011;58747;50.674;4.616;2022-09-09T16:19:30;4.88;;;1.98;;
71087;SDS011;58747;50.674;4.616;2022-09-09T16:21:56;5.53;;;2.23;;
71087;SDS011;58747;50.674;4.616;2022-09-09T16:24:21;2.15;;;1.52;;
71087;SDS011;58747;50.674;4.616;2022-09-09T16:26:49;3.45;;;1.80;;
71087;SDS011;58747;50.674;4.616;2022-09-09T16:29:16;3.53;;;1.83;;
71087;SDS011;58747;50.674;4.616;2022-09-09T16:31:43;4.33;;;1.60;;
71087;SDS011;58747;50.674;4.616;2022-09-09T16:34:09;3.30;;;2.10;;
71087;SDS011;58747;50.674;4.616;2022-09-09T16:36:35;2.15;;;1.83;;
71087;SDS011;58747;50.674;4.616;2022-09-09T16:39:04;1.60;;;1.50;;
71087;SDS011;58747;50.674;4.616;2022-09-09T16:41:31;2.90;;;1.52;;
71087;SDS011;58747;50.674;4.616;2022-09-09T16:43:58;4.13;;;1.60;;
71087;SDS011;58747;50.674;4.616;2022-09-09T16:46:26;2.45;;;1.40;;
71087;SDS011;58747;50.674;4.616;2022-09-09T16:48:53;4.63;;;1.25;;
71087;SDS011;58747;50.674;4.616;2022-09-09T16:51:25;1.20;;;0.87;;
71087;SDS011;58747;50.674;4.616;2022-09-09T16:53:56;3.28;;;1.30;;
71087;SDS011;58747;50.674;4.616;2022-09-09T16:56:24;2.05;;;1.58;;
71087;SDS011;58747;50.674;4.616;2022-09-09T16:58:52;1.98;;;1.27;;
71087;SDS011;58747;50.674;4.616;2022-09-09T17:01:20;2.03;;;1.80;;
71087;SDS011;58747;50.674;4.616;2022-09-09T17:03:46;2.10;;;1.53;;
71087;SDS011;58747;50.674;4.616;2022-09-09T17:06:12;5.50;;;1.73;;
71087;SDS011;58747;50.674;4.616;2022-09-09T17:08:40;2.67;;;1.08;;
71087;SDS011;58747;50.674;4.616;2022-09-09T17:11:12;3.20;;;1.42;;
71087;SDS011;58747;50.674;4.616;2022-09-09T17:13:40;4.40;;;1.50;;
71087;SDS011;58747;50.674;4.616;2022-09-09T17:16:06;1.20;;;1.10;;
71087;SDS011;58747;50.674;4.616;2022-09-09T17:18:32;4.00;;;1.57;;
71087;SDS011;58747;50.674;4.616;2022-09-09T17:21:02;4.07;;;1.40;;
71087;SDS011;58747;50.674;4.616;2022-09-09T17:23:39;3.27;;;1.50;;